createdAt,value
2022-07-31T00:00:15.354Z,24.06
2022-07-31T00:02:42.389Z,23.94
2022-07-31T00:05:10.253Z,24.38
2022-07-31T00:07:37.477Z,24.62
2022-07-31T00:10:05.933Z,24.72
2022-07-31T00:12:35.003Z,24.93
2022-07-31T00:15:04.208Z,25.18
2022-07-31T00:17:33.664Z,25.36
2022-07-31T00:20:00.757Z,25.50
2022-07-31T00:22:27.839Z,25.54
2022-07-31T00:24:55.104Z,25.57
2022-07-31T00:27:22.156Z,25.52
2022-07-31T00:29:49.868Z,25.60
2022-07-31T00:32:16.852Z,25.63
2022-07-31T00:34:43.963Z,25.72
2022-07-31T00:37:11.068Z,25.78
2022-07-31T00:39:38.710Z,25.83
2022-07-31T00:42:06.061Z,25.80
2022-07-31T00:44:33.171Z,25.69
2022-07-31T00:47:01.784Z,25.63
2022-07-31T00:49:37.800Z,25.56
2022-07-31T00:52:06.384Z,25.62
2022-07-31T00:54:34.925Z,25.55
2022-07-31T00:57:03.328Z,25.60
2022-07-31T00:59:31.667Z,25.49
2022-07-31T01:02:00.476Z,25.58
2022-07-31T01:04:28.083Z,25.54
2022-07-31T01:07:01.078Z,25.39
2022-07-31T01:09:29.480Z,25.13
2022-07-31T01:12:32.876Z,25.15
2022-07-31T01:15:05.535Z,24.80
2022-07-31T01:17:34.444Z,24.87
2022-07-31T01:20:02.330Z,24.88
2022-07-31T01:23:18.914Z,25.07
2022-07-31T01:26:25.268Z,25.28
2022-07-31T01:29:44.485Z,25.41
2022-07-31T01:32:19.020Z,25.55
2022-07-31T01:35:16.437Z,25.52
2022-07-31T01:37:55.299Z,25.24
2022-07-31T01:40:48.778Z,25.18
2022-07-31T01:43:19.772Z,25.24
2022-07-31T01:45:50.427Z,25.32
2022-07-31T01:48:18.951Z,25.32
2022-07-31T01:50:49.513Z,25.18
2022-07-31T01:53:20.892Z,25.04
2022-07-31T01:56:00.896Z,25.14
2022-07-31T01:58:36.505Z,25.22
2022-07-31T02:01:11.519Z,25.25
2022-07-31T02:03:42.996Z,25.42
2022-07-31T02:06:16.386Z,25.35
2022-07-31T02:08:48.189Z,25.29
2022-07-31T02:11:19.564Z,25.37
2022-07-31T02:13:48.492Z,25.44
2022-07-31T02:16:18.043Z,25.51
2022-07-31T02:18:49.834Z,25.33
2022-07-31T02:21:26.088Z,25.40
2022-07-31T02:23:54.043Z,25.40
2022-07-31T02:26:22.688Z,25.47
2022-07-31T02:28:52.522Z,25.30
2022-07-31T02:31:23.062Z,25.28
2022-07-31T02:33:51.256Z,25.34
2022-07-31T02:36:21.713Z,25.29
2022-07-31T02:38:50.581Z,25.30
2022-07-31T02:41:19.248Z,25.28
2022-07-31T02:43:47.192Z,25.12
2022-07-31T02:46:23.177Z,24.86
2022-07-31T02:48:52.093Z,24.62
2022-07-31T02:51:21.267Z,24.39
2022-07-31T02:53:48.958Z,24.35
2022-07-31T02:56:17.169Z,23.96
2022-07-31T02:58:44.221Z,24.00
2022-07-31T03:01:37.474Z,23.99
2022-07-31T03:04:05.733Z,23.85
2022-07-31T03:06:32.704Z,23.95
2022-07-31T03:08:59.762Z,24.05
2022-07-31T03:11:27.726Z,24.12
2022-07-31T03:13:58.405Z,24.10
2022-07-31T03:16:26.865Z,24.12
2022-07-31T03:18:56.420Z,23.88
2022-07-31T03:21:25.268Z,23.98
2022-07-31T03:23:52.553Z,23.93
2022-07-31T03:26:22.626Z,23.53
2022-07-31T03:28:49.771Z,23.60
2022-07-31T03:31:17.070Z,23.29
2022-07-31T03:33:44.474Z,23.39
2022-07-31T03:36:13.876Z,23.68
2022-07-31T03:38:43.351Z,23.96
2022-07-31T03:41:21.775Z,24.29
2022-07-31T03:43:50.194Z,24.30
2022-07-31T03:46:22.194Z,24.29
2022-07-31T03:48:52.986Z,24.18
2022-07-31T03:51:21.407Z,24.37
2022-07-31T03:53:49.528Z,24.40
2022-07-31T03:56:35.870Z,24.53
2022-07-31T03:59:04.173Z,24.67
2022-07-31T04:01:57.605Z,24.72
2022-07-31T04:04:30.755Z,24.65
2022-07-31T04:07:04.404Z,24.54
2022-07-31T04:09:31.886Z,24.40
2022-07-31T04:11:59.663Z,24.27
2022-07-31T04:14:26.714Z,24.35
2022-07-31T04:16:53.953Z,24.29
2022-07-31T04:19:21.151Z,24.06
2022-07-31T04:21:50.686Z,24.11
2022-07-31T04:24:18.489Z,23.95
2022-07-31T04:26:55.620Z,23.95
2022-07-31T04:29:28.809Z,24.07
2022-07-31T04:31:56.151Z,23.95
2022-07-31T04:34:30.334Z,23.80
2022-07-31T04:36:57.626Z,23.80
2022-07-31T04:39:24.681Z,23.76
2022-07-31T04:41:52.052Z,23.83
2022-07-31T04:44:21.271Z,23.91
2022-07-31T04:47:02.103Z,24.23
2022-07-31T04:49:32.939Z,24.78
2022-07-31T04:52:02.238Z,25.34
2022-07-31T04:54:30.390Z,25.79
2022-07-31T04:56:59.516Z,26.09
2022-07-31T04:59:59.027Z,26.08
2022-07-31T05:02:14.686Z,26.02
2022-07-31T05:04:41.758Z,26.42
2022-07-31T05:07:09.001Z,26.50
2022-07-31T05:09:36.342Z,26.32
2022-07-31T05:12:06.089Z,26.22
2022-07-31T05:14:33.542Z,26.17
2022-07-31T05:17:00.745Z,26.10
2022-07-31T05:19:41.739Z,26.21
2022-07-31T05:22:26.131Z,26.54
2022-07-31T05:25:10.164Z,26.74
2022-07-31T05:27:39.160Z,27.20
2022-07-31T05:30:10.017Z,27.47
2022-07-31T05:32:37.950Z,27.34
2022-07-31T05:35:05.574Z,27.12
2022-07-31T05:37:34.112Z,27.15
2022-07-31T05:40:08.134Z,27.46
2022-07-31T05:43:04.079Z,27.13
2022-07-31T05:45:51.583Z,27.07
2022-07-31T05:48:18.754Z,26.98
2022-07-31T05:50:47.436Z,27.25
2022-07-31T05:53:15.586Z,27.17
2022-07-31T05:56:01.239Z,27.26
2022-07-31T05:58:41.875Z,27.69
2022-07-31T06:01:10.396Z,28.17
2022-07-31T06:03:51.829Z,28.24
2022-07-31T06:06:23.002Z,28.42
2022-07-31T06:08:50.590Z,28.60
2022-07-31T06:11:18.045Z,28.59
2022-07-31T06:13:45.263Z,29.10
2022-07-31T06:16:22.282Z,29.30
2022-07-31T06:18:49.493Z,29.38
2022-07-31T06:23:44.382Z,29.86
2022-07-31T06:26:34.336Z,29.63
2022-07-31T06:29:02.429Z,29.28
2022-07-31T06:31:29.624Z,29.27
2022-07-31T06:33:58.471Z,28.77
2022-07-31T06:36:32.780Z,28.73
2022-07-31T06:39:01.826Z,28.35
2022-07-31T06:41:47.707Z,28.35
2022-07-31T06:44:32.545Z,28.64
2022-07-31T06:47:22.756Z,28.56
2022-07-31T06:50:06.488Z,28.87
2022-07-31T06:52:39.694Z,28.64
2022-07-31T06:55:08.060Z,28.38
2022-07-31T06:57:35.703Z,28.46
2022-07-31T07:27:10.237Z,27.89
2022-07-31T07:29:37.328Z,27.98
2022-07-31T07:32:05.212Z,28.26
2022-07-31T07:34:32.687Z,28.39
2022-07-31T07:37:02.611Z,28.59
2022-07-31T07:39:33.620Z,28.39
2022-07-31T07:42:01.153Z,28.32
2022-07-31T07:44:28.334Z,28.10
2022-07-31T07:46:55.408Z,28.36
2022-07-31T07:49:22.608Z,28.57
2022-07-31T07:52:00.436Z,28.66
2022-07-31T07:54:59.659Z,28.61
2022-07-31T07:57:58.671Z,28.42
2022-07-31T08:01:03.895Z,28.78
2022-07-31T08:03:49.879Z,29.10
2022-07-31T08:06:18.829Z,28.99
2022-07-31T08:08:46.851Z,28.86
2022-07-31T08:11:36.902Z,28.86
2022-07-31T08:14:11.534Z,29.06
2022-07-31T08:17:21.054Z,29.00
2022-07-31T08:19:51.173Z,29.07
2022-07-31T08:22:19.333Z,29.13
2022-07-31T08:24:46.386Z,29.45
2022-07-31T08:27:28.494Z,29.38
2022-07-31T08:30:08.705Z,29.01
2022-07-31T08:32:36.190Z,28.98
2022-07-31T08:35:06.340Z,28.71
2022-07-31T08:37:51.184Z,28.47
2022-07-31T08:40:22.775Z,28.43
2022-07-31T08:42:50.212Z,28.69
2022-07-31T08:45:17.451Z,28.67
2022-07-31T08:47:55.653Z,28.93
2022-07-31T08:50:29.376Z,28.75
2022-07-31T08:53:00.308Z,28.80
2022-07-31T08:55:55.197Z,28.72
2022-07-31T08:58:25.081Z,28.68
2022-07-31T09:00:52.285Z,28.60
2022-07-31T09:03:19.451Z,28.77
2022-07-31T09:05:56.887Z,28.98
2022-07-31T09:08:24.282Z,29.14
2022-07-31T09:11:13.607Z,29.17
2022-07-31T09:14:01.936Z,28.67
2022-07-31T09:16:55.533Z,28.52
2022-07-31T09:19:53.430Z,28.62
2022-07-31T09:22:31.930Z,28.47
2022-07-31T09:25:16.353Z,28.64
2022-07-31T09:27:43.832Z,28.61
2022-07-31T09:30:11.885Z,28.65
2022-07-31T09:33:11.800Z,28.80
2022-07-31T09:36:00.125Z,28.96
2022-07-31T09:38:34.601Z,29.22
2022-07-31T09:42:00.029Z,29.87
2022-07-31T09:44:26.094Z,30.11
2022-07-31T09:46:53.696Z,30.18
2022-07-31T09:49:30.881Z,29.81
2022-07-31T09:51:58.266Z,29.74
2022-07-31T09:54:28.911Z,29.89
2022-07-31T09:56:59.181Z,29.76
2022-07-31T09:59:31.870Z,29.81
2022-07-31T10:01:58.930Z,29.59
2022-07-31T10:04:26.262Z,29.69
2022-07-31T10:06:55.469Z,29.32
2022-07-31T10:09:25.472Z,29.14
2022-07-31T10:12:02.171Z,28.84
2022-07-31T10:14:32.206Z,28.86
2022-07-31T10:17:04.893Z,28.96
2022-07-31T10:19:47.660Z,28.83
2022-07-31T10:22:46.604Z,29.22
2022-07-31T10:25:24.612Z,29.23
2022-07-31T10:27:54.426Z,28.98
2022-07-31T10:30:26.097Z,29.05
2022-07-31T10:32:57.014Z,28.99
2022-07-31T10:35:27.466Z,29.31
2022-07-31T10:38:24.135Z,29.48
2022-07-31T10:41:08.036Z,28.84
2022-07-31T10:43:43.993Z,28.92
2022-07-31T10:46:32.595Z,29.32
2022-07-31T10:49:18.457Z,29.58
2022-07-31T10:51:54.928Z,29.95
2022-07-31T10:54:46.623Z,30.01
2022-07-31T10:57:56.097Z,29.98
2022-07-31T11:00:43.929Z,29.81
2022-07-31T11:03:47.116Z,29.94
2022-07-31T11:06:21.754Z,29.91
2022-07-31T11:09:08.986Z,29.77
2022-07-31T11:12:02.363Z,29.64
2022-07-31T11:14:47.472Z,29.33
2022-07-31T11:18:25.374Z,29.46
2022-07-31T11:20:46.856Z,29.77
2022-07-31T11:23:17.093Z,29.72
2022-07-31T11:25:46.154Z,30.02
2022-07-31T11:28:24.841Z,30.24
2022-07-31T11:31:03.118Z,30.20
2022-07-31T11:33:42.550Z,30.15
2022-07-31T11:36:16.117Z,30.04
2022-07-31T11:38:46.119Z,30.14
2022-07-31T11:41:15.158Z,30.27
2022-07-31T11:43:50.836Z,30.58
2022-07-31T11:46:27.493Z,30.52
2022-07-31T11:48:59.477Z,30.42
2022-07-31T11:51:31.476Z,30.15
2022-07-31T11:53:59.376Z,29.96
2022-07-31T11:56:27.628Z,30.47
2022-07-31T11:58:57.516Z,30.34
2022-07-31T12:01:29.602Z,30.40
2022-07-31T12:04:07.555Z,30.10
2022-07-31T12:06:37.399Z,30.32
2022-07-31T12:09:04.906Z,29.96
2022-07-31T12:11:33.975Z,30.13
2022-07-31T12:14:03.445Z,30.43
2022-07-31T12:16:42.166Z,30.61
2022-07-31T12:19:09.347Z,30.29
2022-07-31T12:21:39.824Z,29.85
2022-07-31T12:24:14.418Z,30.26
2022-07-31T12:26:49.190Z,30.55
2022-07-31T12:29:16.323Z,30.51
2022-07-31T12:31:52.308Z,30.65
2022-07-31T12:34:45.855Z,30.57
2022-07-31T12:37:16.888Z,30.77
2022-07-31T12:39:59.859Z,30.82
